Time;durP1;ratioP1;P1;durP2;ratioP2;P2;SDS_P1;SDS_P2;PMS_P1;PMS_P2;Temp;Humidity;BMP_temperature;BMP_pressure;BME280_temperature;BME280_humidity;BME280_pressure;Samples;Min_cycle;Max_cycle;Signal;HPM_P1;HPM_P2
2023/06/03 00:00:13;;;;;;;8.10;3.95;;;17.00;93.30;;;;;;4979978;28;20089;-93
2023/06/03 00:02:40;;;;;;;6.93;3.15;;;17.00;93.30;;;;;;4995678;28;20486;-93
2023/06/03 00:05:06;;;;;;;6.75;3.45;;;17.00;93.40;;;;;;4963806;28;20503;-93
2023/06/03 00:07:32;;;;;;;9.35;3.70;;;17.00;93.50;;;;;;4962707;28;20102;-93
2023/06/03 00:09:59;;;;;;;7.70;3.42;;;17.00;93.50;;;;;;4980350;28;20034;-93
2023/06/03 00:12:25;;;;;;;8.98;3.70;;;17.00;93.50;;;;;;4997764;28;20029;-93
2023/06/03 00:14:50;;;;;;;8.40;3.70;;;17.00;93.50;;;;;;4967115;28;20035;-93
2023/06/03 00:17:16;;;;;;;8.70;3.75;;;16.90;93.50;;;;;;5005956;28;20033;-91
2023/06/03 00:19:42;;;;;;;8.73;3.35;;;16.90;93.60;;;;;;4998532;28;20049;-92
2023/06/03 00:22:08;;;;;;;9.95;3.90;;;16.90;93.60;;;;;;4999298;28;20018;-90
2023/06/03 00:24:34;;;;;;;9.05;3.63;;;16.90;93.60;;;;;;5011629;28;20467;-94
2023/06/03 00:27:00;;;;;;;9.90;3.70;;;16.90;93.70;;;;;;4962443;28;20546;-94
2023/06/03 00:29:26;;;;;;;8.27;3.70;;;16.90;93.60;;;;;;4978236;28;20049;-93
2023/06/03 00:31:51;;;;;;;8.85;3.30;;;16.90;93.60;;;;;;4978697;28;20077;-94
2023/06/03 00:34:21;;;;;;;5.57;3.42;;;16.90;93.60;;;;;;4979192;28;20022;-94
2023/06/03 00:36:47;;;;;;;6.10;3.35;;;16.80;93.50;;;;;;4965630;28;20030;-94
2023/06/03 00:39:12;;;;;;;8.43;3.60;;;16.80;93.50;;;;;;4982120;28;20034;-92
2023/06/03 00:41:38;;;;;;;8.48;3.92;;;16.80;93.50;;;;;;4998321;28;20018;-92
2023/06/03 00:44:04;;;;;;;9.90;3.80;;;16.80;93.50;;;;;;4965512;28;20035;-93
2023/06/03 00:46:34;;;;;;;7.70;3.30;;;16.80;93.40;;;;;;4997829;28;20042;-92
2023/06/03 00:49:01;;;;;;;7.00;3.13;;;16.80;93.40;;;;;;4982065;28;20531;-93
2023/06/03 00:51:27;;;;;;;9.15;3.67;;;16.80;93.40;;;;;;4981843;28;20034;-92
2023/06/03 00:53:53;;;;;;;9.80;3.65;;;16.70;93.40;;;;;;4965252;28;20468;-91
2023/06/03 00:56:19;;;;;;;7.13;3.88;;;16.70;93.40;;;;;;4965149;28;20046;-92
2023/06/03 00:58:45;;;;;;;7.53;4.15;;;16.70;93.40;;;;;;4998404;28;20030;-93
2023/06/03 01:01:13;;;;;;;9.18;4.00;;;16.70;93.40;;;;;;4998395;28;20113;-92
2023/06/03 01:03:42;;;;;;;8.32;4.20;;;16.70;93.40;;;;;;4966579;28;20023;-92
2023/06/03 01:06:32;;;;;;;6.63;3.55;;;16.70;93.40;;;;;;4989328;28;20042;-90
2023/06/03 01:09:11;;;;;;;6.32;3.30;;;16.60;93.30;;;;;;5005901;28;20030;-90
2023/06/03 01:11:52;;;;;;;8.57;3.47;;;16.60;93.40;;;;;;5000798;28;20042;-89
2023/06/03 01:14:25;;;;;;;7.70;3.40;;;16.60;93.40;;;;;;4999079;28;20081;-92
2023/06/03 01:16:52;;;;;;;7.13;3.70;;;16.60;93.40;;;;;;4997263;28;20022;-91
2023/06/03 01:19:48;;;;;;;7.20;3.20;;;16.60;93.40;;;;;;4997133;28;20038;-91
2023/06/03 01:22:20;;;;;;;8.75;3.78;;;16.50;93.40;;;;;;4997039;28;20018;-92
2023/06/03 01:24:48;;;;;;;6.88;3.20;;;16.50;93.40;;;;;;4997210;28;20039;-91
2023/06/03 01:27:14;;;;;;;7.47;3.20;;;16.50;93.40;;;;;;4981254;28;20483;-92
2023/06/03 01:29:42;;;;;;;6.00;3.58;;;16.50;93.40;;;;;;4980472;28;20034;-92
2023/06/03 01:32:14;;;;;;;6.75;3.35;;;16.50;93.40;;;;;;4996246;28;20085;-92
2023/06/03 01:34:41;;;;;;;7.20;3.13;;;16.50;93.40;;;;;;4996478;28;20081;-92
2023/06/03 01:37:08;;;;;;;7.28;3.25;;;16.50;93.30;;;;;;4996371;28;20033;-92
2023/06/03 01:39:35;;;;;;;10.98;3.70;;;16.40;93.30;;;;;;4997613;28;20101;-93
2023/06/03 01:42:01;;;;;;;9.48;3.22;;;16.40;93.20;;;;;;4996501;28;20035;-92
2023/06/03 01:44:27;;;;;;;8.25;3.30;;;16.40;93.20;;;;;;4996648;28;20026;-92
2023/06/03 01:46:53;;;;;;;7.30;3.00;;;16.40;93.10;;;;;;4979171;28;20499;-92
2023/06/03 01:49:19;;;;;;;5.70;3.17;;;16.40;93.00;;;;;;4972285;28;20038;-89
2023/06/03 01:51:45;;;;;;;7.03;3.40;;;16.30;93.00;;;;;;4990507;28;20031;-90
2023/06/03 01:54:11;;;;;;;9.13;3.10;;;16.30;93.00;;;;;;4986514;28;20031;-89
2023/06/03 01:56:37;;;;;;;9.30;3.08;;;16.30;92.90;;;;;;5002634;28;20488;-91
2023/06/03 01:59:02;;;;;;;6.60;2.85;;;16.30;92.80;;;;;;4966278;28;20034;-91
2023/06/03 02:01:28;;;;;;;6.10;3.30;;;16.30;92.90;;;;;;4964548;28;20022;-92
2023/06/03 02:03:53;;;;;;;5.55;2.95;;;16.30;92.80;;;;;;4964174;28;20548;-91
2023/06/03 02:06:19;;;;;;;7.40;3.40;;;16.30;92.80;;;;;;4964112;28;20129;-93
2023/06/03 02:08:45;;;;;;;6.25;2.97;;;16.20;92.80;;;;;;4979805;28;20552;-93
2023/06/03 02:11:16;;;;;;;7.95;3.20;;;16.20;92.80;;;;;;4963806;28;20109;-92
2023/06/03 02:13:42;;;;;;;6.90;3.22;;;16.20;92.70;;;;;;4980889;28;20412;-92
2023/06/03 02:16:08;;;;;;;6.90;3.00;;;16.20;92.70;;;;;;4963531;28;20149;-93
2023/06/03 02:18:34;;;;;;;8.70;2.80;;;16.20;92.70;;;;;;4979455;28;20034;-92
2023/06/03 02:21:00;;;;;;;8.32;2.78;;;16.10;92.70;;;;;;4965275;28;20037;-91
2023/06/03 02:23:26;;;;;;;5.78;2.53;;;16.10;92.60;;;;;;4997316;28;20057;-91
2023/06/03 02:25:52;;;;;;;5.07;2.78;;;16.10;92.60;;;;;;4966373;28;20034;-90
2023/06/03 02:28:22;;;;;;;8.20;3.22;;;16.00;92.60;;;;;;4963726;28;20022;-91
2023/06/03 02:30:49;;;;;;;5.47;2.75;;;16.00;92.60;;;;;;4981072;28;20538;-91
2023/06/03 02:33:15;;;;;;;6.47;2.53;;;16.00;92.50;;;;;;4979728;28;20121;-90
2023/06/03 02:35:40;;;;;;;8.30;3.17;;;16.00;92.50;;;;;;4979561;28;20030;-89
2023/06/03 02:38:06;;;;;;;6.72;2.55;;;15.90;92.50;;;;;;4982525;28;20053;-91
2023/06/03 02:40:32;;;;;;;7.78;2.90;;;15.90;92.40;;;;;;4980475;28;20045;-91
2023/06/03 02:42:57;;;;;;;7.40;2.70;;;15.90;92.50;;;;;;4964046;28;20066;-90
2023/06/03 02:45:24;;;;;;;5.28;2.80;;;15.80;92.40;;;;;;4963515;28;20034;-92
2023/06/03 02:47:50;;;;;;;6.25;2.90;;;15.80;92.50;;;;;;4981456;28;20430;-93
2023/06/03 02:50:16;;;;;;;5.82;3.03;;;15.80;92.60;;;;;;4979371;28;20181;-92
2023/06/03 02:52:41;;;;;;;5.28;2.58;;;15.70;92.50;;;;;;4979807;28;20050;-92
2023/06/03 02:55:07;;;;;;;4.72;2.50;;;15.70;92.60;;;;;;4979017;28;20046;-91
2023/06/03 02:57:33;;;;;;;5.60;2.63;;;15.70;92.50;;;;;;4997449;28;20125;-91
2023/06/03 02:59:59;;;;;;;7.28;2.78;;;15.60;92.50;;;;;;4963112;28;20500;-92
2023/06/03 03:02:25;;;;;;;8.23;2.58;;;15.60;92.50;;;;;;4963440;28;20057;-93
2023/06/03 03:04:51;;;;;;;4.20;2.33;;;15.60;92.50;;;;;;4963603;28;20026;-92
2023/06/03 03:07:17;;;;;;;8.30;2.53;;;15.50;92.40;;;;;;4995419;28;20088;-91
2023/06/03 03:09:42;;;;;;;6.65;2.50;;;15.50;92.40;;;;;;4969741;28;20031;-91
2023/06/03 03:12:09;;;;;;;7.78;2.55;;;15.50;92.30;;;;;;4964792;28;20117;-90
2023/06/03 03:14:34;;;;;;;6.68;2.47;;;15.40;92.30;;;;;;4995283;28;20534;-91
2023/06/03 03:17:00;;;;;;;7.30;2.50;;;15.40;92.30;;;;;;4984197;28;20113;-91
2023/06/03 03:19:26;;;;;;;6.55;2.25;;;15.40;92.30;;;;;;4967477;28;20031;-94
2023/06/03 03:21:51;;;;;;;5.30;2.35;;;15.40;92.20;;;;;;4974253;28;20483;-94
2023/06/03 03:24:17;;;;;;;9.23;2.30;;;15.30;92.20;;;;;;4985379;28;20038;-91
2023/06/03 03:26:43;;;;;;;4.10;2.00;;;15.30;92.20;;;;;;4980101;28;20018;-92
2023/06/03 03:29:08;;;;;;;6.63;2.63;;;15.30;92.20;;;;;;4969090;28;20031;-92
2023/06/03 03:31:34;;;;;;;4.47;1.80;;;15.30;92.10;;;;;;4979710;28;20036;-90
2023/06/03 03:34:04;;;;;;;3.97;2.00;;;15.30;92.20;;;;;;4979245;28;20033;-92
2023/06/03 03:36:31;;;;;;;4.75;1.90;;;15.20;92.10;;;;;;4963980;28;20026;-92
2023/06/03 03:39:05;;;;;;;7.85;2.33;;;15.20;92.10;;;;;;4963508;28;20034;-93
2023/06/03 03:41:31;;;;;;;5.30;2.05;;;15.20;92.10;;;;;;4996255;28;20030;-91
2023/06/03 03:43:57;;;;;;;7.50;2.50;;;15.20;92.10;;;;;;4979174;28;20029;-94
2023/06/03 03:46:23;;;;;;;5.18;1.90;;;15.10;92.00;;;;;;4979165;28;20121;-90
2023/06/03 03:48:49;;;;;;;5.60;2.03;;;15.10;92.00;;;;;;4979124;28;20030;-91
2023/06/03 03:51:15;;;;;;;5.25;2.03;;;15.10;92.00;;;;;;4978940;28;20030;-90
2023/06/03 03:53:45;;;;;;;5.80;2.10;;;15.10;91.90;;;;;;4979034;28;20494;-91
2023/06/03 03:56:20;;;;;;;3.28;1.83;;;15.10;91.90;;;;;;4962975;28;20125;-91
2023/06/03 03:58:49;;;;;;;4.38;1.75;;;15.10;91.90;;;;;;4995603;28;20472;-91
2023/06/03 04:01:18;;;;;;;6.72;2.20;;;15.00;91.90;;;;;;4979191;28;20494;-90
2023/06/03 04:03:49;;;;;;;5.68;1.75;;;15.00;91.90;;;;;;4986101;28;20039;-90
2023/06/03 04:06:27;;;;;;;7.43;2.35;;;15.00;91.90;;;;;;4983734;28;20026;-89
2023/06/03 04:08:54;;;;;;;3.90;1.80;;;15.00;91.90;;;;;;4996364;28;20027;-90
2023/06/03 04:11:27;;;;;;;6.35;1.90;;;14.90;91.90;;;;;;4999351;28;20030;-89
2023/06/03 04:13:54;;;;;;;5.90;2.15;;;15.00;91.80;;;;;;5000285;28;20387;-87
2023/06/03 04:16:48;;;;;;;6.80;2.10;;;14.90;91.80;;;;;;5018577;28;20007;-89
2023/06/03 04:19:20;;;;;;;6.50;1.92;;;15.00;91.80;;;;;;5013970;28;20029;-93
2023/06/03 04:21:47;;;;;;;5.05;1.90;;;14.90;91.80;;;;;;5008125;28;20019;-93
2023/06/03 04:24:13;;;;;;;4.80;2.17;;;15.00;91.80;;;;;;5001958;28;20023;-93
2023/06/03 04:26:41;;;;;;;5.47;2.28;;;14.90;91.70;;;;;;4983395;28;20029;-93
2023/06/03 04:29:07;;;;;;;4.20;2.00;;;15.00;91.70;;;;;;4983299;28;20053;-94
2023/06/03 04:31:33;;;;;;;4.07;1.90;;;14.90;91.70;;;;;;4966283;28;20066;-93
2023/06/03 04:33:58;;;;;;;4.53;1.80;;;15.00;91.80;;;;;;4983370;28;20038;-94
2023/06/03 04:36:24;;;;;;;4.72;1.88;;;14.90;91.70;;;;;;4966222;28;20022;-91
2023/06/03 04:38:51;;;;;;;5.32;2.00;;;14.90;91.70;;;;;;4965868;28;20030;-90
2023/06/03 04:41:16;;;;;;;3.65;1.80;;;14.90;91.70;;;;;;4966410;28;20027;-90
2023/06/03 04:43:46;;;;;;;3.42;1.50;;;14.90;91.70;;;;;;4965886;28;20125;-91
2023/06/03 04:46:12;;;;;;;4.13;1.98;;;14.90;91.70;;;;;;4982082;28;20030;-90
2023/06/03 04:48:41;;;;;;;7.05;2.10;;;15.00;91.70;;;;;;4997557;28;20027;-91
2023/06/03 04:51:07;;;;;;;3.80;1.80;;;14.90;91.60;;;;;;4966431;28;20062;-91
2023/06/03 04:53:36;;;;;;;6.38;1.75;;;14.90;91.60;;;;;;4981398;28;20023;-90
2023/06/03 04:56:02;;;;;;;4.93;2.00;;;14.90;91.50;;;;;;4997939;28;20050;-91
2023/06/03 04:58:28;;;;;;;3.90;1.55;;;14.90;91.50;;;;;;4997454;28;20022;-92
2023/06/03 05:00:54;;;;;;;5.82;1.77;;;14.90;91.40;;;;;;4965906;28;20126;-92
2023/06/03 05:03:19;;;;;;;5.88;1.90;;;14.90;91.50;;;;;;4982090;28;20081;-92
2023/06/03 05:05:45;;;;;;;5.97;1.98;;;14.90;91.50;;;;;;4966420;28;20027;-91
2023/06/03 05:08:11;;;;;;;3.97;1.80;;;15.00;91.40;;;;;;4981583;28;20041;-90
2023/06/03 05:10:37;;;;;;;2.95;1.50;;;14.90;91.30;;;;;;4997406;28;20500;-91
2023/06/03 05:13:05;;;;;;;4.65;1.90;;;14.90;91.20;;;;;;4997292;28;20379;-91
2023/06/03 05:15:33;;;;;;;3.33;1.88;;;15.00;91.20;;;;;;4997034;28;20023;-89
2023/06/03 05:18:00;;;;;;;6.95;1.40;;;15.00;91.30;;;;;;4981006;28;20113;-90
2023/06/03 05:20:25;;;;;;;5.80;2.00;;;15.00;91.30;;;;;;4997509;28;20542;-90
2023/06/03 05:22:51;;;;;;;4.38;1.58;;;15.00;91.10;;;;;;4963533;28;20089;-90
2023/06/03 05:25:37;;;;;;;5.97;2.15;;;15.00;91.10;;;;;;4964530;28;20042;-90
2023/06/03 05:28:03;;;;;;;5.63;2.15;;;15.00;91.10;;;;;;4996697;28;20037;-90
2023/06/03 05:30:28;;;;;;;4.40;1.60;;;15.00;91.00;;;;;;4997389;28;20125;-90
2023/06/03 05:32:54;;;;;;;4.18;1.92;;;15.10;90.90;;;;;;4948484;28;20114;-90
2023/06/03 05:35:20;;;;;;;4.28;1.70;;;15.10;90.70;;;;;;4960922;28;20022;-89
2023/06/03 05:37:45;;;;;;;3.03;1.48;;;15.10;90.70;;;;;;4961036;28;20374;-90
2023/06/03 05:40:11;;;;;;;5.28;1.58;;;15.10;90.80;;;;;;4977067;28;20388;-90
2023/06/03 05:42:37;;;;;;;3.70;1.50;;;15.10;90.50;;;;;;4960900;28;20034;-92
2023/06/03 05:45:03;;;;;;;3.03;1.58;;;15.10;90.40;;;;;;4961440;28;20385;-91
2023/06/03 05:47:29;;;;;;;2.35;1.45;;;15.20;90.30;;;;;;4965581;28;20029;-92
2023/06/03 05:49:54;;;;;;;3.88;1.58;;;15.20;90.40;;;;;;4964207;28;20035;-93
2023/06/03 05:52:20;;;;;;;3.55;1.35;;;15.20;90.50;;;;;;4977593;28;20023;-92
2023/06/03 05:54:46;;;;;;;4.38;1.75;;;15.30;90.50;;;;;;4963936;28;20093;-92
2023/06/03 05:57:11;;;;;;;3.05;1.35;;;15.30;90.40;;;;;;4964169;28;20029;-93
2023/06/03 05:59:37;;;;;;;4.20;1.50;;;15.30;90.40;;;;;;4981014;28;20038;-93
2023/06/03 06:02:03;;;;;;;3.38;1.63;;;15.30;90.50;;;;;;4973744;28;20112;-93
2023/06/03 06:04:29;;;;;;;3.38;1.50;;;15.30;90.50;;;;;;4986954;28;20022;-92
2023/06/03 06:06:54;;;;;;;3.22;1.50;;;15.40;90.40;;;;;;4985574;28;20016;-93
2023/06/03 06:09:20;;;;;;;5.30;1.50;;;15.40;90.50;;;;;;4985064;28;20022;-92
2023/06/03 06:11:46;;;;;;;5.43;2.00;;;15.40;90.40;;;;;;4973685;28;20037;-93
2023/06/03 06:14:12;;;;;;;4.45;1.70;;;15.50;90.50;;;;;;4964364;28;20018;-89
2023/06/03 06:16:37;;;;;;;5.72;1.65;;;15.50;90.50;;;;;;4963938;28;20031;-90
2023/06/03 06:19:03;;;;;;;4.03;2.10;;;15.50;90.60;;;;;;4963705;28;20023;-90
2023/06/03 06:21:29;;;;;;;4.00;1.55;;;15.60;90.60;;;;;;4963650;28;20502;-89
2023/06/03 06:23:55;;;;;;;6.53;1.70;;;15.60;90.70;;;;;;4963670;28;20027;-91
2023/06/03 06:26:21;;;;;;;4.90;2.00;;;15.60;90.90;;;;;;4963588;28;20030;-90
2023/06/03 06:28:47;;;;;;;4.45;1.40;;;15.60;90.50;;;;;;4979824;28;20030;-91
2023/06/03 06:31:15;;;;;;;2.42;1.40;;;15.70;90.60;;;;;;4963855;28;20022;-90
2023/06/03 06:33:47;;;;;;;2.90;1.50;;;15.70;90.60;;;;;;4979452;28;20030;-90
2023/06/03 06:36:32;;;;;;;4.70;1.80;;;15.80;90.60;;;;;;4963761;28;20023;-90
2023/06/03 06:38:59;;;;;;;3.63;1.70;;;15.80;90.50;;;;;;4981809;28;20050;-90
2023/06/03 06:41:26;;;;;;;4.18;1.60;;;15.90;90.50;;;;;;4966941;28;20029;-90
2023/06/03 06:43:55;;;;;;;5.85;1.38;;;15.90;90.30;;;;;;4982828;28;20033;-93
2023/06/03 06:46:24;;;;;;;5.20;1.70;;;15.90;90.30;;;;;;4982757;28;20061;-94
2023/06/03 06:48:50;;;;;;;3.63;1.48;;;16.00;90.30;;;;;;5000049;28;20049;-91
2023/06/03 06:51:19;;;;;;;3.03;1.60;;;16.00;90.40;;;;;;4982585;28;20487;-90
2023/06/03 06:53:51;;;;;;;2.25;1.40;;;16.10;90.50;;;;;;4998470;28;20072;-90
2023/06/03 06:56:18;;;;;;;3.78;1.52;;;16.10;90.60;;;;;;4998600;28;20052;-90
2023/06/03 06:58:45;;;;;;;3.13;1.25;;;16.20;90.70;;;;;;4999171;28;20026;-90
2023/06/03 07:01:11;;;;;;;1.88;1.38;;;16.20;90.70;;;;;;4982689;28;20041;-90
2023/06/03 07:03:37;;;;;;;2.40;1.23;;;16.30;90.70;;;;;;4982088;28;20030;-91
2023/06/03 07:06:03;;;;;;;4.10;1.40;;;16.30;90.60;;;;;;4996497;28;20032;-90
2023/06/03 07:08:30;;;;;;;9.02;1.58;;;16.30;90.60;;;;;;4964158;28;20113;-90
2023/06/03 07:10:58;;;;;;;2.05;1.08;;;16.40;90.70;;;;;;4963785;28;20023;-90
2023/06/03 07:13:26;;;;;;;9.60;1.50;;;16.40;90.60;;;;;;4948534;28;20077;-90
2023/06/03 07:15:52;;;;;;;2.53;1.27;;;16.50;90.70;;;;;;4979094;28;20015;-91
2023/06/03 07:18:21;;;;;;;2.22;1.23;;;16.50;90.80;;;;;;4970597;28;20027;-91
2023/06/03 07:20:47;;;;;;;2.80;1.35;;;16.60;90.80;;;;;;4971451;28;20041;-91
2023/06/03 07:23:33;;;;;;;2.78;1.15;;;16.60;90.70;;;;;;4978888;28;20383;-91
2023/06/03 07:25:59;;;;;;;6.60;1.48;;;16.70;90.70;;;;;;4974373;28;20038;-90
2023/06/03 07:28:28;;;;;;;3.00;1.30;;;16.80;90.70;;;;;;4981843;28;20095;-91
2023/06/03 07:30:53;;;;;;;7.13;1.30;;;16.80;90.60;;;;;;4997944;28;20025;-92
2023/06/03 07:33:28;;;;;;;3.40;1.50;;;16.90;90.30;;;;;;4965497;28;20076;-90
2023/06/03 07:35:57;;;;;;;3.45;1.15;;;16.90;90.30;;;;;;4998559;28;20026;-92
2023/06/03 07:38:37;;;;;;;3.42;1.30;;;17.00;90.30;;;;;;4999217;28;20022;-89
2023/06/03 07:41:07;;;;;;;2.92;1.33;;;17.00;90.20;;;;;;4997525;28;20044;-90
2023/06/03 07:43:39;;;;;;;5.15;1.27;;;17.10;90.30;;;;;;4997879;28;20026;-90
2023/06/03 07:46:06;;;;;;;4.03;1.15;;;17.10;90.20;;;;;;4980803;28;20044;-89
2023/06/03 07:48:39;;;;;;;4.10;1.38;;;17.20;90.30;;;;;;4981590;28;20041;-90
2023/06/03 07:51:09;;;;;;;6.47;1.30;;;17.30;90.50;;;;;;4980965;28;20030;-90
2023/06/03 07:53:39;;;;;;;5.80;1.30;;;17.40;90.50;;;;;;4997828;28;20026;-89
2023/06/03 07:56:09;;;;;;;3.55;1.33;;;17.40;90.30;;;;;;4965771;28;20316;-91
2023/06/03 07:58:38;;;;;;;4.38;1.30;;;17.50;90.10;;;;;;4981662;28;20026;-92
2023/06/03 08:01:05;;;;;;;1.98;1.05;;;17.50;90.00;;;;;;4997970;28;20037;-93
2023/06/03 08:03:32;;;;;;;3.25;1.30;;;17.60;89.50;;;;;;4997833;28;20501;-93
2023/06/03 08:05:58;;;;;;;2.90;1.10;;;17.70;89.40;;;;;;4981058;28;20026;-90
2023/06/03 08:08:32;;;;;;;2.35;1.33;;;17.70;89.30;;;;;;5007834;28;20026;-91
2023/06/03 08:11:00;;;;;;;2.65;1.20;;;17.80;89.20;;;;;;5004785;28;20029;-91
2023/06/03 08:13:25;;;;;;;1.58;1.05;;;17.80;88.70;;;;;;4986811;28;20026;-90
2023/06/03 08:15:51;;;;;;;5.18;1.15;;;17.90;88.70;;;;;;4965933;28;20121;-90
2023/06/03 08:18:47;;;;;;;3.17;1.17;;;18.00;88.50;;;;;;4964899;28;20026;-90
2023/06/03 08:21:13;;;;;;;1.23;1.00;;;18.00;88.40;;;;;;4997351;28;20033;-90
2023/06/03 08:23:40;;;;;;;5.07;0.80;;;18.10;88.20;;;;;;4996764;28;20032;-88
2023/06/03 08:26:08;;;;;;;2.50;1.23;;;18.20;87.40;;;;;;4995469;28;20038;-89
2023/06/03 08:28:34;;;;;;;5.75;1.15;;;18.20;86.30;;;;;;4982311;28;20053;-94
2023/06/03 08:30:59;;;;;;;4.03;1.10;;;18.30;86.30;;;;;;4965720;28;20034;-94
2023/06/03 08:33:26;;;;;;;5.57;1.10;;;18.30;86.20;;;;;;4965255;28;20026;-93
2023/06/03 08:35:52;;;;;;;3.38;1.13;;;18.40;85.50;;;;;;4981088;28;20026;-93
2023/06/03 08:38:18;;;;;;;2.33;0.82;;;18.50;84.70;;;;;;4981229;28;20045;-93
2023/06/03 08:40:49;;;;;;;2.67;1.00;;;18.50;84.50;;;;;;4985658;28;20033;-91
2023/06/03 08:43:16;;;;;;;2.03;0.82;;;18.60;84.20;;;;;;4986296;28;20045;-91
2023/06/03 08:46:07;;;;;;;2.88;0.82;;;18.70;83.90;;;;;;4966079;28;20376;-91
2023/06/03 08:48:55;;;;;;;3.33;0.90;;;18.80;84.70;;;;;;4985643;28;20042;-91
2023/06/03 08:51:22;;;;;;;2.90;0.95;;;18.80;84.70;;;;;;4996863;28;20041;-91
2023/06/03 08:53:50;;;;;;;4.35;0.90;;;18.90;84.60;;;;;;4996949;28;20025;-91
2023/06/03 08:56:20;;;;;;;1.80;0.82;;;18.90;84.80;;;;;;4994958;28;20058;-91
2023/06/03 08:58:59;;;;;;;3.45;0.80;;;19.00;85.50;;;;;;4997992;28;20196;-91
2023/06/03 09:01:35;;;;;;;2.55;0.80;;;19.10;85.90;;;;;;4998114;28;20475;-95
2023/06/03 09:04:03;;;;;;;4.47;1.10;;;19.20;86.00;;;;;;4999044;28;20062;-95
2023/06/03 09:06:30;;;;;;;3.53;1.00;;;19.20;85.40;;;;;;4999557;28;20022;-93
2023/06/03 09:09:02;;;;;;;3.20;0.85;;;19.30;84.50;;;;;;4984171;28;20038;-94
2023/06/03 09:11:28;;;;;;;3.35;1.10;;;19.30;82.80;;;;;;4984182;28;20046;-94
2023/06/03 09:13:57;;;;;;;2.40;1.08;;;19.40;82.10;;;;;;4983546;28;20029;-95
2023/06/03 09:16:24;;;;;;;1.38;0.80;;;19.40;81.60;;;;;;4982955;28;20045;-94
2023/06/03 09:18:52;;;;;;;3.65;0.90;;;19.50;81.70;;;;;;4983466;28;20050;-96
2023/06/03 09:21:18;;;;;;;3.70;0.95;;;19.50;81.70;;;;;;4992975;28;20085;-95
2023/06/03 09:23:44;;;;;;;2.83;0.75;;;19.60;81.40;;;;;;4991685;28;20031;-95
2023/06/03 09:26:10;;;;;;;3.22;0.68;;;19.60;81.70;;;;;;4987579;28;20026;-91
2023/06/03 09:28:36;;;;;;;2.55;0.93;;;19.70;82.10;;;;;;4999851;28;20033;-91
2023/06/03 09:31:03;;;;;;;2.10;0.93;;;19.80;81.70;;;;;;4989621;28;20383;-91
2023/06/03 09:33:30;;;;;;;1.52;0.75;;;19.80;80.70;;;;;;4982532;28;20031;-90
2023/06/03 09:36:17;;;;;;;2.47;0.70;;;19.90;80.80;;;;;;4963197;28;20121;-96
2023/06/03 09:38:55;;;;;;;2.17;0.70;;;19.90;81.30;;;;;;4980021;28;20457;-95
2023/06/03 09:41:27;;;;;;;2.90;1.08;;;20.00;81.10;;;;;;4979356;28;20472;-95
2023/06/03 09:44:05;;;;;;;2.03;0.73;;;20.10;80.90;;;;;;4979137;28;20034;-94
2023/06/03 09:46:33;;;;;;;2.25;0.90;;;20.10;80.80;;;;;;4979782;28;20033;-93
2023/06/03 09:49:12;;;;;;;4.32;0.98;;;20.20;80.40;;;;;;4979409;28;20457;-92
2023/06/03 09:51:48;;;;;;;2.50;0.80;;;20.20;79.20;;;;;;4962539;28;20129;-96
2023/06/03 09:54:15;;;;;;;3.35;0.80;;;20.30;78.90;;;;;;4977354;28;20118;-90
2023/06/03 09:56:42;;;;;;;1.42;0.77;;;20.30;78.50;;;;;;4996421;28;20055;-90
2023/06/03 09:59:34;;;;;;;2.10;0.88;;;20.40;78.10;;;;;;4964553;28;20026;-88
2023/06/03 10:02:00;;;;;;;3.05;1.23;;;20.40;77.10;;;;;;4977197;28;20038;-89
2023/06/03 10:04:40;;;;;;;1.85;0.90;;;20.50;77.50;;;;;;4964600;28;20038;-89
2023/06/03 10:07:20;;;;;;;2.05;0.95;;;20.50;77.20;;;;;;4981090;28;20041;-90
2023/06/03 10:09:47;;;;;;;1.13;0.77;;;20.60;77.10;;;;;;4990468;28;20049;-91
2023/06/03 10:12:28;;;;;;;4.28;1.20;;;20.60;77.30;;;;;;4995871;28;20018;-92
2023/06/03 10:15:00;;;;;;;1.55;0.63;;;20.70;78.10;;;;;;5010014;28;20467;-91
2023/06/03 10:17:27;;;;;;;2.83;0.68;;;20.70;77.50;;;;;;5015475;28;20029;-92
2023/06/03 10:19:53;;;;;;;1.60;0.70;;;20.80;77.20;;;;;;5002047;28;20026;-94
2023/06/03 10:22:20;;;;;;;1.88;0.80;;;20.80;76.50;;;;;;5008977;28;20030;-95
2023/06/03 10:24:48;;;;;;;1.92;0.65;;;20.90;76.20;;;;;;4985082;28;20247;-91
2023/06/03 10:27:18;;;;;;;1.33;0.73;;;21.00;76.10;;;;;;4991088;28;20022;-91
2023/06/03 10:29:44;;;;;;;1.23;0.53;;;21.00;75.70;;;;;;5034220;28;20032;-90
2023/06/03 10:32:16;;;;;;;1.70;0.68;;;21.00;75.50;;;;;;5005213;28;20265;-90
2023/06/03 10:34:43;;;;;;;1.58;0.80;;;21.00;75.50;;;;;;5016818;28;20022;-91
2023/06/03 10:37:13;;;;;;;1.33;0.52;;;21.10;75.20;;;;;;4999927;28;20026;-90
2023/06/03 10:39:42;;;;;;;1.30;0.60;;;21.20;74.50;;;;;;5015827;28;20033;-90
2023/06/03 10:42:10;;;;;;;4.03;0.73;;;21.20;74.60;;;;;;5015878;28;20458;-91
2023/06/03 10:44:37;;;;;;;1.42;0.75;;;21.30;74.60;;;;;;5015546;28;20025;-88
2023/06/03 10:47:21;;;;;;;0.68;0.55;;;21.30;74.00;;;;;;5000860;28;20022;-91
2023/06/03 10:49:50;;;;;;;1.23;0.70;;;21.40;73.40;;;;;;5015366;28;20469;-90
2023/06/03 10:52:20;;;;;;;4.05;0.82;;;21.40;73.10;;;;;;5017834;28;20108;-90
2023/06/03 10:55:05;;;;;;;1.08;0.60;;;21.40;73.10;;;;;;5018893;28;20026;-89
2023/06/03 10:57:49;;;;;;;8.18;0.80;;;21.40;72.40;;;;;;5019226;28;20106;-90
2023/06/03 11:00:56;;;;;;;1.77;0.70;;;21.50;72.20;;;;;;5015250;28;20018;-91
2023/06/03 11:03:23;;;;;;;3.78;1.00;;;21.60;72.10;;;;;;5014246;28;20088;-90
2023/06/03 11:05:50;;;;;;;1.55;0.85;;;21.60;71.20;;;;;;5015836;28;20451;-91
2023/06/03 11:08:54;;;;;;;1.65;0.63;;;21.70;70.50;;;;;;5015022;28;20030;-91
2023/06/03 11:11:41;;;;;;;3.60;0.73;;;21.70;70.40;;;;;;5016157;28;20026;-90
2023/06/03 11:14:07;;;;;;;2.83;0.73;;;21.80;70.20;;;;;;5014957;28;20036;-91
2023/06/03 11:16:58;;;;;;;5.55;0.93;;;21.80;69.90;;;;;;5014994;28;20054;-91
2023/06/03 11:19:54;;;;;;;1.65;0.70;;;21.80;67.50;;;;;;5014441;28;20030;-92
2023/06/03 11:22:32;;;;;;;3.35;0.88;;;21.90;68.10;;;;;;4998542;28;20056;-92
2023/06/03 11:24:59;;;;;;;2.50;0.80;;;21.90;68.80;;;;;;4999222;28;20033;-91
2023/06/03 11:27:31;;;;;;;3.30;1.27;;;22.00;69.00;;;;;;4987028;28;20040;-96
2023/06/03 11:30:02;;;;;;;1.55;0.70;;;22.00;69.20;;;;;;5009578;28;20076;-92
2023/06/03 11:32:28;;;;;;;;;;;22.10;69.40;;;;;;4998899;28;20091;-91
2023/06/03 11:35:03;;;;;;;2.25;0.85;;;22.10;69.20;;;;;;4998969;28;19906;-92
2023/06/03 11:37:44;;;;;;;2.45;1.00;;;22.10;68.90;;;;;;4998871;28;20030;-91
2023/06/03 11:40:18;;;;;;;6.00;0.90;;;22.20;68.70;;;;;;4998691;28;20030;-95
2023/06/03 11:42:47;;;;;;;1.02;0.68;;;22.20;68.50;;;;;;4999582;28;20030;-95
2023/06/03 11:45:24;;;;;;;2.00;0.80;;;22.30;68.40;;;;;;5000163;28;20481;-95
2023/06/03 11:48:09;;;;;;;4.93;1.10;;;22.30;68.50;;;;;;5000277;28;20037;-96
2023/06/03 11:50:57;;;;;;;2.60;0.90;;;22.30;67.90;;;;;;5002995;28;20057;-95
2023/06/03 11:53:34;;;;;;;4.05;0.90;;;22.40;68.40;;;;;;5001903;28;20467;-95
2023/06/03 11:56:08;;;;;;;2.05;0.85;;;22.50;67.90;;;;;;5001057;28;20474;-94
2023/06/03 11:58:58;;;;;;;3.60;1.00;;;22.50;67.70;;;;;;4984979;28;20076;-93
2023/06/03 12:01:24;;;;;;;1.75;0.65;;;22.50;67.10;;;;;;4998195;28;20022;-90
2023/06/03 12:04:02;;;;;;;2.08;0.90;;;22.60;66.70;;;;;;4965879;28;20061;-95
2023/06/03 12:06:43;;;;;;;2.85;1.00;;;22.60;65.80;;;;;;5008629;28;20046;-95
2023/06/03 12:09:10;;;;;;;1.88;0.75;;;22.60;64.80;;;;;;4981766;28;20023;-93
2023/06/03 12:11:41;;;;;;;2.60;0.70;;;22.70;64.40;;;;;;4984978;28;20026;-92
2023/06/03 12:14:21;;;;;;;3.20;0.93;;;22.70;64.50;;;;;;4985924;28;20045;-92
2023/06/03 12:16:47;;;;;;;1.55;0.88;;;22.80;64.90;;;;;;4989529;28;20069;-93
2023/06/03 12:19:13;;;;;;;4.40;0.82;;;22.80;64.60;;;;;;4992085;28;20045;-93
2023/06/03 12:21:39;;;;;;;1.88;0.90;;;22.80;64.00;;;;;;5014230;28;20037;-88
2023/06/03 12:24:12;;;;;;;3.92;0.60;;;22.90;64.50;;;;;;5018721;28;20022;-90
2023/06/03 12:26:41;;;;;;;2.00;0.75;;;22.90;64.10;;;;;;5004349;28;20044;-91
2023/06/03 12:29:14;;;;;;;1.65;0.73;;;23.00;64.20;;;;;;5007374;28;20032;-94
2023/06/03 12:31:59;;;;;;;1.73;0.68;;;23.10;61.80;;;;;;5003359;28;20041;-95
2023/06/03 12:34:35;;;;;;;1.17;0.80;;;23.10;61.60;;;;;;5006000;28;20029;-94
2023/06/03 12:37:05;;;;;;;2.88;0.90;;;23.10;62.00;;;;;;5003822;28;20033;-96
2023/06/03 12:39:45;;;;;;;1.45;0.60;;;23.10;62.20;;;;;;5005698;28;20026;-90
2023/06/03 12:42:12;;;;;;;20.00;1.65;;;23.20;62.10;;;;;;5002068;28;20471;-90
2023/06/03 12:44:53;;;;;;;11.52;1.38;;;23.20;61.80;;;;;;4985888;28;20117;-90
2023/06/03 12:47:25;;;;;;;5.25;1.10;;;23.30;62.00;;;;;;4986019;28;20168;-90
2023/06/03 12:50:08;;;;;;;28.85;3.50;;;23.30;62.50;;;;;;5001220;28;20029;-90
2023/06/03 12:52:36;;;;;;;3.63;1.33;;;23.30;62.10;;;;;;5001876;28;20029;-94
2023/06/03 12:55:07;;;;;;;5.38;1.30;;;23.40;61.90;;;;;;5002826;28;20594;-95
2023/06/03 12:57:34;;;;;;;3.45;0.90;;;23.40;61.50;;;;;;4987282;28;20033;-94
2023/06/03 13:00:08;;;;;;;6.55;1.10;;;23.40;61.60;;;;;;5001693;28;20026;-95